sensor_id;sensor_type;location;lat;lon;timestamp;temperature;humidity
48162;DHT22;33950;48.154;16.316;2023-04-06T00:02:25;3.60;68.80
48162;DHT22;33950;48.154;16.316;2023-04-06T00:05:13;3.50;68.80
48162;DHT22;33950;48.154;16.316;2023-04-06T00:07:59;3.50;68.90
48162;DHT22;33950;48.154;16.316;2023-04-06T00:10:48;3.50;69.10
48162;DHT22;33950;48.154;16.316;2023-04-06T00:13:34;3.60;69.10
48162;DHT22;33950;48.154;16.316;2023-04-06T00:16:20;3.60;69.00
48162;DHT22;33950;48.154;16.316;2023-04-06T00:19:06;3.60;68.90
48162;DHT22;33950;48.154;16.316;2023-04-06T00:21:54;3.70;68.80
48162;DHT22;33950;48.154;16.316;2023-04-06T00:24:40;3.70;68.90
48162;DHT22;33950;48.154;16.316;2023-04-06T00:27:26;3.60;68.80
48162;DHT22;33950;48.154;16.316;2023-04-06T00:30:13;3.60;68.80
48162;DHT22;33950;48.154;16.316;2023-04-06T00:32:59;3.50;68.90
48162;DHT22;33950;48.154;16.316;2023-04-06T00:35:45;3.50;68.90
48162;DHT22;33950;48.154;16.316;2023-04-06T00:38:33;3.50;69.10
48162;DHT22;33950;48.154;16.316;2023-04-06T00:41:19;3.40;69.30
48162;DHT22;33950;48.154;16.316;2023-04-06T00:44:06;3.40;69.30
48162;DHT22;33950;48.154;16.316;2023-04-06T00:46:52;3.40;69.40
48162;DHT22;33950;48.154;16.316;2023-04-06T00:49:39;3.30;69.30
48162;DHT22;33950;48.154;16.316;2023-04-06T00:52:25;3.30;69.20
48162;DHT22;33950;48.154;16.316;2023-04-06T00:55:13;3.20;69.30
48162;DHT22;33950;48.154;16.316;2023-04-06T00:57:59;3.20;69.50
48162;DHT22;33950;48.154;16.316;2023-04-06T01:00:49;3.10;69.60
48162;DHT22;33950;48.154;16.316;2023-04-06T01:03:35;3.10;69.70
48162;DHT22;33950;48.154;16.316;2023-04-06T01:06:22;3.00;69.80
48162;DHT22;33950;48.154;16.316;2023-04-06T01:09:08;3.00;69.80
48162;DHT22;33950;48.154;16.316;2023-04-06T01:11:55;2.90;69.90
48162;DHT22;33950;48.154;16.316;2023-04-06T01:14:42;2.90;70.20
48162;DHT22;33950;48.154;16.316;2023-04-06T01:17:28;2.80;70.40
48162;DHT22;33950;48.154;16.316;2023-04-06T01:20:14;2.80;70.70
48162;DHT22;33950;48.154;16.316;2023-04-06T01:23:02;2.70;70.80
48162;DHT22;33950;48.154;16.316;2023-04-06T01:25:48;2.70;71.10
48162;DHT22;33950;48.154;16.316;2023-04-06T01:28:34;2.70;71.20
48162;DHT22;33950;48.154;16.316;2023-04-06T01:31:20;2.60;71.00
48162;DHT22;33950;48.154;16.316;2023-04-06T01:34:07;2.60;71.00
48162;DHT22;33950;48.154;16.316;2023-04-06T01:36:53;2.60;71.20
48162;DHT22;33950;48.154;16.316;2023-04-06T01:39:42;2.50;71.40
48162;DHT22;33950;48.154;16.316;2023-04-06T01:42:29;2.50;71.30
48162;DHT22;33950;48.154;16.316;2023-04-06T01:45:16;2.60;71.20
48162;DHT22;33950;48.154;16.316;2023-04-06T01:48:02;2.60;71.20
48162;DHT22;33950;48.154;16.316;2023-04-06T01:50:48;2.50;71.10
48162;DHT22;33950;48.154;16.316;2023-04-06T01:53:34;2.50;71.00
48162;DHT22;33950;48.154;16.316;2023-04-06T01:56:22;2.50;70.90
48162;DHT22;33950;48.154;16.316;2023-04-06T01:59:08;2.50;70.90
48162;DHT22;33950;48.154;16.316;2023-04-06T02:01:54;2.40;71.00
48162;DHT22;33950;48.154;16.316;2023-04-06T02:04:40;2.50;70.90
48162;DHT22;33950;48.154;16.316;2023-04-06T02:07:26;2.50;70.80
48162;DHT22;33950;48.154;16.316;2023-04-06T02:10:15;2.50;71.00
48162;DHT22;33950;48.154;16.316;2023-04-06T02:13:02;2.40;71.30
48162;DHT22;33950;48.154;16.316;2023-04-06T02:15:48;2.40;71.20
48162;DHT22;33950;48.154;16.316;2023-04-06T02:18:35;2.50;71.30
48162;DHT22;33950;48.154;16.316;2023-04-06T02:21:21;2.40;71.10
48162;DHT22;33950;48.154;16.316;2023-04-06T02:24:07;2.40;70.90
48162;DHT22;33950;48.154;16.316;2023-04-06T02:26:54;2.40;71.00
48162;DHT22;33950;48.154;16.316;2023-04-06T02:29:41;2.40;71.00
48162;DHT22;33950;48.154;16.316;2023-04-06T02:32:28;2.40;70.90
48162;DHT22;33950;48.154;16.316;2023-04-06T02:35:14;2.40;71.00
48162;DHT22;33950;48.154;16.316;2023-04-06T02:38:00;2.50;71.00
48162;DHT22;33950;48.154;16.316;2023-04-06T02:40:46;2.60;70.90
48162;DHT22;33950;48.154;16.316;2023-04-06T02:43:32;2.60;70.90
48162;DHT22;33950;48.154;16.316;2023-04-06T02:46:20;2.60;70.70
48162;DHT22;33950;48.154;16.316;2023-04-06T02:49:06;2.60;70.60
48162;DHT22;33950;48.154;16.316;2023-04-06T02:51:53;2.70;70.70
48162;DHT22;33950;48.154;16.316;2023-04-06T02:54:39;2.60;70.50
48162;DHT22;33950;48.154;16.316;2023-04-06T02:57:25;2.70;70.50
48162;DHT22;33950;48.154;16.316;2023-04-06T03:00:12;2.60;70.60
48162;DHT22;33950;48.154;16.316;2023-04-06T03:02:59;2.60;70.80
48162;DHT22;33950;48.154;16.316;2023-04-06T03:05:46;2.60;70.80
48162;DHT22;33950;48.154;16.316;2023-04-06T03:08:32;2.70;70.80
48162;DHT22;33950;48.154;16.316;2023-04-06T03:11:19;2.70;70.80
48162;DHT22;33950;48.154;16.316;2023-04-06T03:14:05;2.70;70.70
48162;DHT22;33950;48.154;16.316;2023-04-06T03:16:51;2.80;70.80
48162;DHT22;33950;48.154;16.316;2023-04-06T03:19:38;2.90;70.70
48162;DHT22;33950;48.154;16.316;2023-04-06T03:22:25;3.10;70.50
48162;DHT22;33950;48.154;16.316;2023-04-06T03:25:11;3.10;70.10
48162;DHT22;33950;48.154;16.316;2023-04-06T03:27:57;3.10;70.00
48162;DHT22;33950;48.154;16.316;2023-04-06T03:30:43;3.00;69.80
48162;DHT22;33950;48.154;16.316;2023-04-06T03:33:29;2.90;70.00
48162;DHT22;33950;48.154;16.316;2023-04-06T03:36:17;2.80;70.00
48162;DHT22;33950;48.154;16.316;2023-04-06T03:39:03;2.80;70.30
48162;DHT22;33950;48.154;16.316;2023-04-06T03:41:49;2.60;70.50
48162;DHT22;33950;48.154;16.316;2023-04-06T03:44:35;2.50;70.80
48162;DHT22;33950;48.154;16.316;2023-04-06T03:47:22;2.40;71.00
48162;DHT22;33950;48.154;16.316;2023-04-06T03:50:09;2.40;71.10
48162;DHT22;33950;48.154;16.316;2023-04-06T03:52:56;2.40;71.20
48162;DHT22;33950;48.154;16.316;2023-04-06T03:55:43;2.40;71.20
48162;DHT22;33950;48.154;16.316;2023-04-06T03:58:29;2.40;71.30
48162;DHT22;33950;48.154;16.316;2023-04-06T04:01:15;2.40;71.40
48162;DHT22;33950;48.154;16.316;2023-04-06T04:04:01;2.40;71.30
48162;DHT22;33950;48.154;16.316;2023-04-06T04:06:47;2.30;71.40
48162;DHT22;33950;48.154;16.316;2023-04-06T04:09:35;2.30;71.60
48162;DHT22;33950;48.154;16.316;2023-04-06T04:12:21;2.30;71.70
48162;DHT22;33950;48.154;16.316;2023-04-06T04:15:08;2.30;71.80
48162;DHT22;33950;48.154;16.316;2023-04-06T04:17:54;2.40;72.20
48162;DHT22;33950;48.154;16.316;2023-04-06T04:20:40;2.40;71.60
48162;DHT22;33950;48.154;16.316;2023-04-06T04:23:26;2.80;71.50
48162;DHT22;33950;48.154;16.316;2023-04-06T04:26:14;2.90;71.40
48162;DHT22;33950;48.154;16.316;2023-04-06T04:29:00;2.90;71.20
48162;DHT22;33950;48.154;16.316;2023-04-06T04:31:46;3.00;71.00
48162;DHT22;33950;48.154;16.316;2023-04-06T04:34:32;3.00;71.00
48162;DHT22;33950;48.154;16.316;2023-04-06T04:37:18;3.00;70.90
48162;DHT22;33950;48.154;16.316;2023-04-06T04:40:06;3.10;70.60
48162;DHT22;33950;48.154;16.316;2023-04-06T04:42:54;3.00;70.60
48162;DHT22;33950;48.154;16.316;2023-04-06T04:45:40;2.90;71.30
48162;DHT22;33950;48.154;16.316;2023-04-06T04:48:26;2.70;71.10
48162;DHT22;33950;48.154;16.316;2023-04-06T04:51:12;2.60;71.50
48162;DHT22;33950;48.154;16.316;2023-04-06T04:53:58;2.40;71.80
48162;DHT22;33950;48.154;16.316;2023-04-06T04:56:44;2.40;72.20
48162;DHT22;33950;48.154;16.316;2023-04-06T04:59:33;2.30;72.20
48162;DHT22;33950;48.154;16.316;2023-04-06T05:02:19;2.40;72.40
48162;DHT22;33950;48.154;16.316;2023-04-06T05:05:06;2.30;72.50
48162;DHT22;33950;48.154;16.316;2023-04-06T05:07:52;2.20;72.70
48162;DHT22;33950;48.154;16.316;2023-04-06T05:10:38;2.30;72.80
48162;DHT22;33950;48.154;16.316;2023-04-06T05:13:25;2.20;72.90
48162;DHT22;33950;48.154;16.316;2023-04-06T05:16:12;2.20;72.90
48162;DHT22;33950;48.154;16.316;2023-04-06T05:18:58;2.20;73.10
48162;DHT22;33950;48.154;16.316;2023-04-06T05:21:45;2.20;73.00
48162;DHT22;33950;48.154;16.316;2023-04-06T05:24:31;2.30;73.00
48162;DHT22;33950;48.154;16.316;2023-04-06T05:27:17;2.30;73.00
48162;DHT22;33950;48.154;16.316;2023-04-06T05:30:04;2.40;72.80
48162;DHT22;33950;48.154;16.316;2023-04-06T05:32:52;2.50;72.50
48162;DHT22;33950;48.154;16.316;2023-04-06T05:35:38;2.50;72.20
48162;DHT22;33950;48.154;16.316;2023-04-06T05:38:24;2.60;72.00
48162;DHT22;33950;48.154;16.316;2023-04-06T05:41:10;2.60;71.90
48162;DHT22;33950;48.154;16.316;2023-04-06T05:43:57;2.60;72.10
48162;DHT22;33950;48.154;16.316;2023-04-06T05:46:43;2.70;71.80
48162;DHT22;33950;48.154;16.316;2023-04-06T05:49:30;2.60;71.90
48162;DHT22;33950;48.154;16.316;2023-04-06T05:52:16;2.60;71.90
48162;DHT22;33950;48.154;16.316;2023-04-06T05:55:03;2.60;71.90
48162;DHT22;33950;48.154;16.316;2023-04-06T05:57:50;2.50;72.00
48162;DHT22;33950;48.154;16.316;2023-04-06T06:00:36;2.50;72.10
48162;DHT22;33950;48.154;16.316;2023-04-06T06:03:22;2.50;72.20
48162;DHT22;33950;48.154;16.316;2023-04-06T06:06:10;2.60;72.30
48162;DHT22;33950;48.154;16.316;2023-04-06T06:08:59;2.60;72.30
48162;DHT22;33950;48.154;16.316;2023-04-06T06:11:46;2.80;72.00
48162;DHT22;33950;48.154;16.316;2023-04-06T06:14:32;2.90;71.90
48162;DHT22;33950;48.154;16.316;2023-04-06T06:17:18;2.90;71.80
48162;DHT22;33950;48.154;16.316;2023-04-06T06:20:06;2.90;71.80
48162;DHT22;33950;48.154;16.316;2023-04-06T06:22:54;2.90;72.10
48162;DHT22;33950;48.154;16.316;2023-04-06T06:25:40;3.00;72.10
48162;DHT22;33950;48.154;16.316;2023-04-06T06:28:26;3.10;72.10
48162;DHT22;33950;48.154;16.316;2023-04-06T06:31:12;3.10;72.20
48162;DHT22;33950;48.154;16.316;2023-04-06T06:33:58;3.00;72.60
48162;DHT22;33950;48.154;16.316;2023-04-06T06:36:44;3.00;72.70
48162;DHT22;33950;48.154;16.316;2023-04-06T06:39:32;3.00;72.90
48162;DHT22;33950;48.154;16.316;2023-04-06T06:42:18;3.00;72.90
48162;DHT22;33950;48.154;16.316;2023-04-06T06:45:06;3.10;72.90
48162;DHT22;33950;48.154;16.316;2023-04-06T06:47:52;3.20;73.00
48162;DHT22;33950;48.154;16.316;2023-04-06T06:50:38;3.20;73.10
48162;DHT22;33950;48.154;16.316;2023-04-06T06:53:24;3.30;72.90
48162;DHT22;33950;48.154;16.316;2023-04-06T06:56:12;3.40;72.90
48162;DHT22;33950;48.154;16.316;2023-04-06T06:58:58;3.40;72.90
48162;DHT22;33950;48.154;16.316;2023-04-06T07:01:44;3.40;73.20
48162;DHT22;33950;48.154;16.316;2023-04-06T07:04:31;3.40;73.20
48162;DHT22;33950;48.154;16.316;2023-04-06T07:07:17;3.40;73.40
48162;DHT22;33950;48.154;16.316;2023-04-06T07:10:03;3.60;73.40
48162;DHT22;33950;48.154;16.316;2023-04-06T07:12:51;3.70;73.30
48162;DHT22;33950;48.154;16.316;2023-04-06T07:15:37;3.80;73.30
48162;DHT22;33950;48.154;16.316;2023-04-06T07:18:24;3.90;73.10
48162;DHT22;33950;48.154;16.316;2023-04-06T07:21:11;4.00;73.40
48162;DHT22;33950;48.154;16.316;2023-04-06T07:23:57;4.00;73.20
48162;DHT22;33950;48.154;16.316;2023-04-06T07:26:43;4.10;73.20
48162;DHT22;33950;48.154;16.316;2023-04-06T07:29:31;4.00;73.30
48162;DHT22;33950;48.154;16.316;2023-04-06T07:32:17;4.10;73.70
48162;DHT22;33950;48.154;16.316;2023-04-06T07:35:03;4.20;73.70
48162;DHT22;33950;48.154;16.316;2023-04-06T07:37:49;4.20;73.90
48162;DHT22;33950;48.154;16.316;2023-04-06T07:40:36;4.20;74.10
48162;DHT22;33950;48.154;16.316;2023-04-06T07:43:22;4.30;73.90
48162;DHT22;33950;48.154;16.316;2023-04-06T07:46:09;4.30;73.70
48162;DHT22;33950;48.154;16.316;2023-04-06T07:48:56;4.40;74.00
48162;DHT22;33950;48.154;16.316;2023-04-06T07:51:42;4.50;73.80
48162;DHT22;33950;48.154;16.316;2023-04-06T07:54:29;4.60;73.80
48162;DHT22;33950;48.154;16.316;2023-04-06T07:57:15;4.70;73.90
48162;DHT22;33950;48.154;16.316;2023-04-06T08:00:01;4.70;73.60
48162;DHT22;33950;48.154;16.316;2023-04-06T08:02:50;4.80;73.70
48162;DHT22;33950;48.154;16.316;2023-04-06T08:05:37;5.00;72.90
48162;DHT22;33950;48.154;16.316;2023-04-06T08:08:23;5.00;72.70
48162;DHT22;33950;48.154;16.316;2023-04-06T08:11:09;5.10;72.20
48162;DHT22;33950;48.154;16.316;2023-04-06T08:13:56;5.10;72.00
48162;DHT22;33950;48.154;16.316;2023-04-06T08:16:42;5.10;71.70
48162;DHT22;33950;48.154;16.316;2023-04-06T08:19:30;5.00;71.70
48162;DHT22;33950;48.154;16.316;2023-04-06T08:22:16;5.10;71.70
48162;DHT22;33950;48.154;16.316;2023-04-06T08:25:03;5.20;71.70
48162;DHT22;33950;48.154;16.316;2023-04-06T08:27:50;5.30;71.80
48162;DHT22;33950;48.154;16.316;2023-04-06T08:30:36;5.40;71.20
48162;DHT22;33950;48.154;16.316;2023-04-06T08:33:23;5.40;70.80
48162;DHT22;33950;48.154;16.316;2023-04-06T08:36:12;5.40;70.80
48162;DHT22;33950;48.154;16.316;2023-04-06T08:38:59;5.50;70.90
48162;DHT22;33950;48.154;16.316;2023-04-06T08:41:46;5.50;70.90
48162;DHT22;33950;48.154;16.316;2023-04-06T08:44:32;5.70;71.20
48162;DHT22;33950;48.154;16.316;2023-04-06T08:47:19;5.70;70.60
48162;DHT22;33950;48.154;16.316;2023-04-06T08:50:06;5.70;70.60
48162;DHT22;33950;48.154;16.316;2023-04-06T08:52:55;5.70;71.00
48162;DHT22;33950;48.154;16.316;2023-04-06T08:55:43;5.80;71.10
48162;DHT22;33950;48.154;16.316;2023-04-06T08:58:34;5.70;71.10
48162;DHT22;33950;48.154;16.316;2023-04-06T09:01:23;5.70;71.00
48162;DHT22;33950;48.154;16.316;2023-04-06T09:04:11;5.70;70.90
48162;DHT22;33950;48.154;16.316;2023-04-06T09:06:58;5.70;70.70
48162;DHT22;33950;48.154;16.316;2023-04-06T09:09:45;5.90;71.10
48162;DHT22;33950;48.154;16.316;2023-04-06T09:12:35;6.10;70.20
48162;DHT22;33950;48.154;16.316;2023-04-06T09:15:22;6.20;70.40
48162;DHT22;33950;48.154;16.316;2023-04-06T09:18:08;6.10;69.80
48162;DHT22;33950;48.154;16.316;2023-04-06T09:20:58;6.10;70.20
48162;DHT22;33950;48.154;16.316;2023-04-06T09:23:44;6.20;70.10
48162;DHT22;33950;48.154;16.316;2023-04-06T09:26:31;6.30;69.90
48162;DHT22;33950;48.154;16.316;2023-04-06T09:29:23;6.20;69.80
48162;DHT22;33950;48.154;16.316;2023-04-06T09:32:11;6.40;69.40
48162;DHT22;33950;48.154;16.316;2023-04-06T09:35:05;6.60;68.70
48162;DHT22;33950;48.154;16.316;2023-04-06T09:37:53;6.80;69.20
48162;DHT22;33950;48.154;16.316;2023-04-06T09:40:48;7.00;68.70
48162;DHT22;33950;48.154;16.316;2023-04-06T09:43:36;7.10;68.10
48162;DHT22;33950;48.154;16.316;2023-04-06T09:46:23;7.20;68.60
48162;DHT22;33950;48.154;16.316;2023-04-06T09:49:10;7.30;67.80
48162;DHT22;33950;48.154;16.316;2023-04-06T09:51:59;7.40;67.90
48162;DHT22;33950;48.154;16.316;2023-04-06T09:54:46;7.50;68.00
48162;DHT22;33950;48.154;16.316;2023-04-06T09:57:43;7.50;68.10
48162;DHT22;33950;48.154;16.316;2023-04-06T10:00:40;7.60;65.10
48162;DHT22;33950;48.154;16.316;2023-04-06T10:03:35;7.50;65.20
48162;DHT22;33950;48.154;16.316;2023-04-06T10:06:26;7.50;64.30
48162;DHT22;33950;48.154;16.316;2023-04-06T10:09:13;7.50;63.70
48162;DHT22;33950;48.154;16.316;2023-04-06T10:12:00;7.40;63.40
48162;DHT22;33950;48.154;16.316;2023-04-06T10:14:46;7.60;63.40
48162;DHT22;33950;48.154;16.316;2023-04-06T10:17:33;7.80;63.00
48162;DHT22;33950;48.154;16.316;2023-04-06T10:20:23;7.70;63.60
48162;DHT22;33950;48.154;16.316;2023-04-06T10:23:13;7.90;62.40
48162;DHT22;33950;48.154;16.316;2023-04-06T10:26:03;8.00;62.60
48162;DHT22;33950;48.154;16.316;2023-04-06T10:28:50;8.20;62.70
48162;DHT22;33950;48.154;16.316;2023-04-06T10:31:41;8.30;61.60
48162;DHT22;33950;48.154;16.316;2023-04-06T10:34:37;8.40;62.10
48162;DHT22;33950;48.154;16.316;2023-04-06T10:37:23;8.60;61.60
48162;DHT22;33950;48.154;16.316;2023-04-06T10:40:18;8.80;61.10
48162;DHT22;33950;48.154;16.316;2023-04-06T10:43:11;9.10;60.90
48162;DHT22;33950;48.154;16.316;2023-04-06T10:46:00;9.40;60.00
48162;DHT22;33950;48.154;16.316;2023-04-06T10:48:46;9.40;59.30
48162;DHT22;33950;48.154;16.316;2023-04-06T10:51:38;9.50;59.40
48162;DHT22;33950;48.154;16.316;2023-04-06T10:54:26;9.50;59.00
48162;DHT22;33950;48.154;16.316;2023-04-06T10:57:13;9.80;59.30
48162;DHT22;33950;48.154;16.316;2023-04-06T10:59:59;10.20;58.60
48162;DHT22;33950;48.154;16.316;2023-04-06T11:02:46;10.50;57.80
48162;DHT22;33950;48.154;16.316;2023-04-06T11:05:32;10.80;57.40
48162;DHT22;33950;48.154;16.316;2023-04-06T11:08:30;10.80;57.50
48162;DHT22;33950;48.154;16.316;2023-04-06T11:11:20;10.50;57.90
48162;DHT22;33950;48.154;16.316;2023-04-06T11:14:09;10.40;58.00
48162;DHT22;33950;48.154;16.316;2023-04-06T11:16:56;10.40;58.40
48162;DHT22;33950;48.154;16.316;2023-04-06T11:19:42;10.80;57.50
48162;DHT22;33950;48.154;16.316;2023-04-06T11:22:33;11.00;57.00
48162;DHT22;33950;48.154;16.316;2023-04-06T11:25:21;11.30;56.70
48162;DHT22;33950;48.154;16.316;2023-04-06T11:28:09;11.10;56.80
48162;DHT22;33950;48.154;16.316;2023-04-06T11:31:00;11.30;56.30
48162;DHT22;33950;48.154;16.316;2023-04-06T11:33:55;11.40;56.10
48162;DHT22;33950;48.154;16.316;2023-04-06T11:36:43;11.60;56.30
48162;DHT22;33950;48.154;16.316;2023-04-06T11:42:23;12.20;53.90
48162;DHT22;33950;48.154;16.316;2023-04-06T11:45:17;12.20;54.50
48162;DHT22;33950;48.154;16.316;2023-04-06T11:48:03;12.30;54.60
48162;DHT22;33950;48.154;16.316;2023-04-06T11:50:55;12.30;54.60
48162;DHT22;33950;48.154;16.316;2023-04-06T11:53:44;12.60;54.20
48162;DHT22;33950;48.154;16.316;2023-04-06T11:56:31;12.30;53.40
48162;DHT22;33950;48.154;16.316;2023-04-06T11:59:19;12.30;53.50
48162;DHT22;33950;48.154;16.316;2023-04-06T12:02:05;12.30;53.60
48162;DHT22;33950;48.154;16.316;2023-04-06T12:04:52;12.30;53.50
48162;DHT22;33950;48.154;16.316;2023-04-06T12:07:38;12.10;53.60
48162;DHT22;33950;48.154;16.316;2023-04-06T12:10:24;12.40;54.30
48162;DHT22;33950;48.154;16.316;2023-04-06T12:13:10;12.60;54.10
48162;DHT22;33950;48.154;16.316;2023-04-06T12:15:58;12.70;53.80
48162;DHT22;33950;48.154;16.316;2023-04-06T12:18:44;12.60;53.10
48162;DHT22;33950;48.154;16.316;2023-04-06T12:21:30;12.50;53.00
48162;DHT22;33950;48.154;16.316;2023-04-06T12:24:17;12.30;53.70
48162;DHT22;33950;48.154;16.316;2023-04-06T12:27:03;12.50;53.80
48162;DHT22;33950;48.154;16.316;2023-04-06T12:29:49;12.40;52.80
48162;DHT22;33950;48.154;16.316;2023-04-06T12:32:37;12.50;53.40
48162;DHT22;33950;48.154;16.316;2023-04-06T12:35:24;12.40;53.60
48162;DHT22;33950;48.154;16.316;2023-04-06T12:38:10;12.70;54.00
48162;DHT22;33950;48.154;16.316;2023-04-06T12:40:57;12.90;53.00
48162;DHT22;33950;48.154;16.316;2023-04-06T12:43:44;12.90;53.30
48162;DHT22;33950;48.154;16.316;2023-04-06T12:46:30;13.00;53.20
48162;DHT22;33950;48.154;16.316;2023-04-06T12:49:18;13.00;53.00
48162;DHT22;33950;48.154;16.316;2023-04-06T12:52:05;12.60;53.30
48162;DHT22;33950;48.154;16.316;2023-04-06T12:54:51;12.80;52.90
48162;DHT22;33950;48.154;16.316;2023-04-06T12:57:37;12.80;52.90
48162;DHT22;33950;48.154;16.316;2023-04-06T13:00:23;12.60;52.80
48162;DHT22;33950;48.154;16.316;2023-04-06T13:03:09;12.40;52.80
48162;DHT22;33950;48.154;16.316;2023-04-06T13:05:59;12.20;53.90
48162;DHT22;33950;48.154;16.316;2023-04-06T13:08:45;12.20;53.70
48162;DHT22;33950;48.154;16.316;2023-04-06T13:11:33;12.30;54.00
48162;DHT22;33950;48.154;16.316;2023-04-06T13:14:19;12.30;54.00
48162;DHT22;33950;48.154;16.316;2023-04-06T13:17:05;12.10;54.00
48162;DHT22;33950;48.154;16.316;2023-04-06T13:19:52;12.10;53.40
48162;DHT22;33950;48.154;16.316;2023-04-06T13:22:39;12.10;54.00
48162;DHT22;33950;48.154;16.316;2023-04-06T13:25:26;12.10;54.20
48162;DHT22;33950;48.154;16.316;2023-04-06T13:28:12;12.30;54.20
48162;DHT22;33950;48.154;16.316;2023-04-06T13:30:59;12.80;53.70
48162;DHT22;33950;48.154;16.316;2023-04-06T13:33:46;12.80;53.40
48162;DHT22;33950;48.154;16.316;2023-04-06T13:36:32;12.70;53.20
48162;DHT22;33950;48.154;16.316;2023-04-06T13:39:19;12.70;53.60
48162;DHT22;33950;48.154;16.316;2023-04-06T13:42:06;12.70;52.90
48162;DHT22;33950;48.154;16.316;2023-04-06T13:44:52;12.80;53.00
48162;DHT22;33950;48.154;16.316;2023-04-06T13:47:39;13.00;53.30
48162;DHT22;33950;48.154;16.316;2023-04-06T13:50:26;13.10;53.60
48162;DHT22;33950;48.154;16.316;2023-04-06T13:53:12;13.30;52.70
48162;DHT22;33950;48.154;16.316;2023-04-06T13:56:00;13.50;52.70
48162;DHT22;33950;48.154;16.316;2023-04-06T13:58:46;13.80;52.50
48162;DHT22;33950;48.154;16.316;2023-04-06T14:01:32;14.10;51.60
48162;DHT22;33950;48.154;16.316;2023-04-06T14:04:18;14.10;51.70
48162;DHT22;33950;48.154;16.316;2023-04-06T14:07:04;14.00;51.30
48162;DHT22;33950;48.154;16.316;2023-04-06T14:09:53;14.20;51.50
48162;DHT22;33950;48.154;16.316;2023-04-06T14:12:40;14.20;52.00
48162;DHT22;33950;48.154;16.316;2023-04-06T14:15:27;14.40;51.70
48162;DHT22;33950;48.154;16.316;2023-04-06T14:18:13;14.50;50.80
48162;DHT22;33950;48.154;16.316;2023-04-06T14:21:00;14.40;51.30
48162;DHT22;33950;48.154;16.316;2023-04-06T14:23:46;14.40;51.80
48162;DHT22;33950;48.154;16.316;2023-04-06T14:26:32;14.50;51.40
48162;DHT22;33950;48.154;16.316;2023-04-06T14:29:20;14.40;51.10
48162;DHT22;33950;48.154;16.316;2023-04-06T14:32:06;14.30;51.10
48162;DHT22;33950;48.154;16.316;2023-04-06T14:34:52;14.30;51.10
48162;DHT22;33950;48.154;16.316;2023-04-06T14:37:38;14.40;51.50
48162;DHT22;33950;48.154;16.316;2023-04-06T14:40:24;14.40;51.20
48162;DHT22;33950;48.154;16.316;2023-04-06T14:43:10;14.40;50.50
48162;DHT22;33950;48.154;16.316;2023-04-06T14:46:01;14.40;51.20
48162;DHT22;33950;48.154;16.316;2023-04-06T14:48:47;14.50;50.80
48162;DHT22;33950;48.154;16.316;2023-04-06T14:51:34;14.40;51.10
48162;DHT22;33950;48.154;16.316;2023-04-06T14:54:20;14.40;50.70
48162;DHT22;33950;48.154;16.316;2023-04-06T14:57:07;14.40;51.00
48162;DHT22;33950;48.154;16.316;2023-04-06T14:59:53;14.20;50.80
48162;DHT22;33950;48.154;16.316;2023-04-06T15:02:41;14.40;51.70
48162;DHT22;33950;48.154;16.316;2023-04-06T15:05:28;14.50;51.20
48162;DHT22;33950;48.154;16.316;2023-04-06T15:08:16;14.50;51.10
48162;DHT22;33950;48.154;16.316;2023-04-06T15:11:03;14.60;51.50
48162;DHT22;33950;48.154;16.316;2023-04-06T15:13:49;14.60;51.40
48162;DHT22;33950;48.154;16.316;2023-04-06T15:16:35;14.50;51.40
48162;DHT22;33950;48.154;16.316;2023-04-06T15:19:22;14.60;51.40
48162;DHT22;33950;48.154;16.316;2023-04-06T15:22:09;14.60;50.90
48162;DHT22;33950;48.154;16.316;2023-04-06T15:24:57;14.30;50.30
48162;DHT22;33950;48.154;16.316;2023-04-06T15:27:43;14.10;50.80
48162;DHT22;33950;48.154;16.316;2023-04-06T15:30:29;14.00;50.80
48162;DHT22;33950;48.154;16.316;2023-04-06T15:33:15;14.10;51.50
48162;DHT22;33950;48.154;16.316;2023-04-06T15:36:06;14.20;51.30
48162;DHT22;33950;48.154;16.316;2023-04-06T15:38:58;14.30;51.60
48162;DHT22;33950;48.154;16.316;2023-04-06T15:41:44;14.50;51.00
48162;DHT22;33950;48.154;16.316;2023-04-06T15:44:30;14.20;50.60
48162;DHT22;33950;48.154;16.316;2023-04-06T15:47:17;14.00;51.60
48162;DHT22;33950;48.154;16.316;2023-04-06T15:50:03;13.90;51.70
48162;DHT22;33950;48.154;16.316;2023-04-06T15:52:51;13.80;51.10
48162;DHT22;33950;48.154;16.316;2023-04-06T15:55:37;13.50;51.20
48162;DHT22;33950;48.154;16.316;2023-04-06T15:58:23;13.30;52.00
48162;DHT22;33950;48.154;16.316;2023-04-06T16:01:13;13.10;51.90
48162;DHT22;33950;48.154;16.316;2023-04-06T16:03:59;12.90;52.40
48162;DHT22;33950;48.154;16.316;2023-04-06T16:06:45;12.80;52.90
48162;DHT22;33950;48.154;16.316;2023-04-06T16:09:33;12.60;53.10
48162;DHT22;33950;48.154;16.316;2023-04-06T16:12:19;12.60;53.70
48162;DHT22;33950;48.154;16.316;2023-04-06T16:15:06;12.60;53.70
48162;DHT22;33950;48.154;16.316;2023-04-06T16:17:52;12.40;53.50
48162;DHT22;33950;48.154;16.316;2023-04-06T16:20:39;12.20;53.80
48162;DHT22;33950;48.154;16.316;2023-04-06T16:23:25;12.10;54.30
48162;DHT22;33950;48.154;16.316;2023-04-06T16:26:13;12.10;54.40
48162;DHT22;33950;48.154;16.316;2023-04-06T16:29:00;12.10;54.30
48162;DHT22;33950;48.154;16.316;2023-04-06T16:31:46;12.10;54.50
48162;DHT22;33950;48.154;16.316;2023-04-06T16:34:32;12.00;54.80
48162;DHT22;33950;48.154;16.316;2023-04-06T16:37:19;12.00;54.90
48162;DHT22;33950;48.154;16.316;2023-04-06T16:40:06;12.00;54.60
48162;DHT22;33950;48.154;16.316;2023-04-06T16:42:54;11.90;54.30
48162;DHT22;33950;48.154;16.316;2023-04-06T16:45:40;11.60;55.00
48162;DHT22;33950;48.154;16.316;2023-04-06T16:48:27;11.60;55.10
48162;DHT22;33950;48.154;16.316;2023-04-06T16:51:14;11.50;54.80
48162;DHT22;33950;48.154;16.316;2023-04-06T16:54:00;11.50;54.60
48162;DHT22;33950;48.154;16.316;2023-04-06T16:56:47;11.60;55.50
48162;DHT22;33950;48.154;16.316;2023-04-06T16:59:34;11.60;55.20
48162;DHT22;33950;48.154;16.316;2023-04-06T17:02:21;11.60;55.10
48162;DHT22;33950;48.154;16.316;2023-04-06T17:05:07;11.50;55.10
48162;DHT22;33950;48.154;16.316;2023-04-06T17:07:54;11.30;55.70
48162;DHT22;33950;48.154;16.316;2023-04-06T17:10:40;11.30;55.60
48162;DHT22;33950;48.154;16.316;2023-04-06T17:13:26;11.20;55.70
48162;DHT22;33950;48.154;16.316;2023-04-06T17:16:13;11.10;56.00
48162;DHT22;33950;48.154;16.316;2023-04-06T17:18:59;11.10;56.20
48162;DHT22;33950;48.154;16.316;2023-04-06T17:21:46;11.10;56.20
48162;DHT22;33950;48.154;16.316;2023-04-06T17:24:32;11.20;56.20
48162;DHT22;33950;48.154;16.316;2023-04-06T17:27:18;11.00;56.50
48162;DHT22;33950;48.154;16.316;2023-04-06T17:30:09;10.90;56.80
48162;DHT22;33950;48.154;16.316;2023-04-06T17:32:57;11.00;57.00